Time;durP1;ratioP1;P1;durP2;ratioP2;P2;SDS_P1;SDS_P2;PMS_P1;PMS_P2;Temp;Humidity;BMP_temperature;BMP_pressure;BME280_temperature;BME280_humidity;BME280_pressure;Samples;Min_cycle;Max_cycle;Signal;HPM_P1;HPM_P2
2023/07/13 00:00:56;;;;;;;;;;;;;;;19.05;74.16;96489.38;5106454;28;20019;-75
2023/07/13 00:03:22;;;;;;;;;;;;;;;18.99;74.18;96501.09;5106422;28;19943;-74
2023/07/13 00:05:57;;;;;;;;;;;;;;;18.94;74.05;96494.97;5106703;28;19944;-76
2023/07/13 00:08:22;;;;;;;;;;;;;;;18.85;73.84;96479.59;5106828;28;20145;-75
2023/07/13 00:10:52;;;;;;;;;;;;;;;18.79;74.39;96472.72;5106983;28;19934;-74
2023/07/13 00:13:18;;;;;;;;;;;;;;;18.76;74.77;96478.53;5106254;28;19947;-74
2023/07/13 00:15:44;;;;;;;;;;;;;;;18.69;74.23;96488.66;5105721;28;19937;-73
2023/07/13 00:18:10;;;;;;;;;;;;;;;18.62;73.70;96483.59;5106021;28;20212;-73
2023/07/13 00:20:36;;;;;;;;;;;;;;;18.58;74.64;96495.03;5106537;28;19965;-73
2023/07/13 00:23:02;;;;;;;;;;;;;;;18.53;74.57;96476.47;5104882;28;19942;-73
2023/07/13 00:25:30;;;;;;;;;;;;;;;18.50;74.34;96482.28;5106808;28;19938;-74
2023/07/13 00:27:56;;;;;;;;;;;;;;;18.45;75.18;96481.22;5105926;28;19950;-73
2023/07/13 00:30:22;;;;;;;;;;;;;;;18.43;75.16;96480.69;5106660;28;20211;-73
2023/07/13 00:32:48;;;;;;;;;;;;;;;18.40;74.68;96473.28;5105827;28;19989;-73
2023/07/13 00:35:15;;;;;;;;;;;;;;;18.36;75.22;96482.03;5105746;28;19943;-72
2023/07/13 00:37:41;;;;;;;;;;;;;;;18.30;75.26;96483.09;5105861;28;20048;-71
2023/07/13 00:40:07;;;;;;;;;;;;;;;18.24;74.84;96482.31;5088323;28;20046;-72
2023/07/13 00:42:33;;;;;;;;;;;;;;;18.19;75.08;96491.06;5104465;28;20217;-72
2023/07/13 00:45:04;;;;;;;;;;;;;;;18.13;75.13;96486.81;5104517;28;19939;-72
2023/07/13 00:47:30;;;;;;;;;;;;;;;18.10;75.52;96490.00;5104392;28;20219;-72
2023/07/13 00:49:56;;;;;;;;;;;;;;;18.08;76.33;96493.97;5105154;28;19979;-72
2023/07/13 00:52:22;;;;;;;;;;;;;;;18.07;76.06;96489.75;5105454;28;19934;-72
2023/07/13 00:54:48;;;;;;;;;;;;;;;18.02;75.85;96488.69;5104499;28;19988;-72
2023/07/13 00:57:17;;;;;;;;;;;;;;;18.01;75.95;96494.25;5105757;28;20127;-74
2023/07/13 00:59:45;;;;;;;;;;;;;;;18.01;76.21;96494.25;5104149;28;19950;-73
2023/07/13 01:02:11;;;;;;;;;;;;;;;18.01;75.99;96494.25;5105761;28;19934;-73
2023/07/13 01:04:38;;;;;;;;;;;;;;;18.00;75.56;96485.47;5105105;28;19943;-73
2023/07/13 01:07:04;;;;;;;;;;;;;;;17.97;75.64;96478.03;5104826;28;19937;-73
2023/07/13 01:09:30;;;;;;;;;;;;;;;17.94;75.35;96477.78;5105120;28;19937;-73
2023/07/13 01:11:56;;;;;;;;;;;;;;;17.86;74.75;96476.44;5105924;28;20234;-73
2023/07/13 01:14:22;;;;;;;;;;;;;;;17.84;75.73;96489.97;5104020;28;19937;-76
2023/07/13 01:16:49;;;;;;;;;;;;;;;17.85;75.33;96494.22;5104838;28;19931;-73
2023/07/13 01:19:21;;;;;;;;;;;;;;;17.88;76.06;96489.44;5105422;28;19947;-75
2023/07/13 01:21:50;;;;;;;;;;;;;;;17.91;75.56;96486.25;5105490;28;19964;-75
2023/07/13 01:24:16;;;;;;;;;;;;;;;17.91;75.08;96484.44;5104804;28;19936;-74
2023/07/13 01:26:42;;;;;;;;;;;;;;;17.90;75.48;96487.34;5105470;28;19938;-75
2023/07/13 01:29:08;;;;;;;;;;;;;;;17.89;74.84;96483.06;5087569;28;19960;-74
2023/07/13 01:31:34;;;;;;;;;;;;;;;17.86;75.28;96489.72;5104776;28;19936;-78
2023/07/13 01:34:00;;;;;;;;;;;;;;;17.83;75.14;96477.78;5086795;28;19966;-71
2023/07/13 01:36:26;;;;;;;;;;;;;;;17.79;75.10;96479.31;5086716;28;20235;-72
2023/07/13 01:38:52;;;;;;;;;;;;;;;17.76;74.77;96493.09;5086594;28;19937;-71
2023/07/13 01:41:18;;;;;;;;;;;;;;;17.73;74.84;96493.63;5086529;28;19972;-72
2023/07/13 01:43:44;;;;;;;;;;;;;;;17.68;74.80;96493.63;5086632;28;19943;-72
2023/07/13 01:46:10;;;;;;;;;;;;;;;17.63;75.08;96491.75;5104599;28;19982;-72
2023/07/13 01:48:36;;;;;;;;;;;;;;;17.61;75.31;96493.06;5104240;28;19947;-73
2023/07/13 01:51:01;;;;;;;;;;;;;;;17.56;75.04;96485.13;5104493;28;19959;-73
2023/07/13 01:53:27;;;;;;;;;;;;;;;17.54;75.67;96501.28;5105017;28;19941;-86
2023/07/13 01:55:53;;;;;;;;;;;;;;;17.54;75.26;96495.19;5103288;28;19952;-87
2023/07/13 01:58:19;;;;;;;;;;;;;;;17.52;75.35;96498.09;5103248;28;19987;-87
2023/07/13 02:00:47;;;;;;;;;;;;;;;17.51;75.26;96490.38;5103222;28;19993;-86
2023/07/13 02:03:17;;;;;;;;;;;;;;;17.49;75.21;96495.16;5087143;28;19950;-86
2023/07/13 02:05:44;;;;;;;;;;;;;;;17.46;74.99;96499.13;5103138;28;19946;-86
2023/07/13 02:08:10;;;;;;;;;;;;;;;17.44;74.97;96495.94;5086319;28;19937;-73
2023/07/13 02:10:36;;;;;;;;;;;;;;;17.42;75.47;96498.84;5104814;28;19942;-72
2023/07/13 02:13:04;;;;;;;;;;;;;;;17.39;75.08;96499.38;5103139;28;20111;-73
2023/07/13 02:15:30;;;;;;;;;;;;;;;17.36;75.53;96499.09;5103073;28;20108;-73
2023/07/13 02:17:56;;;;;;;;;;;;;;;17.33;76.52;96505.72;5102932;28;20381;-73
2023/07/13 02:20:22;;;;;;;;;;;;;;;17.30;76.28;96505.44;5103009;28;19963;-73
2023/07/13 02:22:48;;;;;;;;;;;;;;;17.25;76.64;96509.66;5104397;28;19935;-73
2023/07/13 02:25:14;;;;;;;;;;;;;;;17.22;76.43;96498.78;5104102;28;19981;-84
2023/07/13 02:27:40;;;;;;;;;;;;;;;17.18;76.81;96503.81;5086131;28;19939;-73
2023/07/13 02:30:06;;;;;;;;;;;;;;;17.17;77.24;96517.31;5104102;28;19934;-73
2023/07/13 02:32:32;;;;;;;;;;;;;;;17.15;76.88;96511.47;5104239;28;19942;-73
2023/07/13 02:34:58;;;;;;;;;;;;;;;17.13;77.82;96524.16;5104319;28;19945;-72
2023/07/13 02:37:23;;;;;;;;;;;;;;;17.10;77.55;96522.84;5104126;28;19935;-74
2023/07/13 02:39:49;;;;;;;;;;;;;;;17.06;76.92;96521.75;5106809;28;20260;-73
2023/07/13 02:42:15;;;;;;;;;;;;;;;17.02;78.02;96532.06;5108793;28;20209;-74
2023/07/13 02:44:41;;;;;;;;;;;;;;;17.00;77.77;96530.72;5107629;28;19942;-73
2023/07/13 02:47:07;;;;;;;;;;;;;;;16.95;77.93;96528.06;5106852;28;19942;-73
2023/07/13 02:49:33;;;;;;;;;;;;;;;16.92;78.25;96532.00;5108386;28;19935;-74
2023/07/13 02:51:59;;;;;;;;;;;;;;;16.86;78.87;96533.03;5106662;28;19985;-73
2023/07/13 02:54:25;;;;;;;;;;;;;;;16.83;78.53;96529.03;5107239;28;19938;-74
2023/07/13 02:56:51;;;;;;;;;;;;;;;16.80;78.41;96540.16;5108055;28;20242;-73
2023/07/13 02:59:17;;;;;;;;;;;;;;;16.76;79.27;96533.75;5107597;28;19947;-73
2023/07/13 03:01:42;;;;;;;;;;;;;;;16.75;78.57;96532.13;5108128;28;19949;-72
2023/07/13 03:04:08;;;;;;;;;;;;;;;16.74;79.71;96527.91;5106547;28;19944;-74
2023/07/13 03:06:34;;;;;;;;;;;;;;;16.74;80.39;96533.19;5107068;28;19940;-75
2023/07/13 03:09:00;;;;;;;;;;;;;;;16.73;79.71;96523.66;5107499;28;19932;-74
2023/07/13 03:11:26;;;;;;;;;;;;;;;16.71;79.96;96520.44;5107470;28;20257;-74
2023/07/13 03:13:53;;;;;;;;;;;;;;;16.72;79.92;96519.41;5107386;28;19989;-75
2023/07/13 03:16:19;;;;;;;;;;;;;;;16.71;79.78;96525.75;5107880;28;19939;-75
2023/07/13 03:18:45;;;;;;;;;;;;;;;16.71;79.89;96530.25;5107226;28;20045;-72
2023/07/13 03:21:11;;;;;;;;;;;;;;;16.70;80.69;96539.25;5107753;28;19980;-78
2023/07/13 03:23:37;;;;;;;;;;;;;;;16.68;81.09;96542.16;5089194;28;19965;-77
2023/07/13 03:26:03;;;;;;;;;;;;;;;16.67;81.70;96535.25;5106926;28;20146;-77
2023/07/13 03:28:28;;;;;;;;;;;;;;;16.65;81.26;96540.00;5107065;28;20211;-77
2023/07/13 03:31:01;;;;;;;;;;;;;;;16.64;81.01;96541.84;5106743;28;19949;-77
2023/07/13 03:33:27;;;;;;;;;;;;;;;16.64;81.02;96536.56;5107524;28;19945;-77
2023/07/13 03:35:53;;;;;;;;;;;;;;;16.64;81.39;96533.13;5106967;28;19935;-77
2023/07/13 03:38:19;;;;;;;;;;;;;;;16.64;81.21;96541.84;5107444;28;19971;-73
2023/07/13 03:40:45;;;;;;;;;;;;;;;16.63;81.02;96542.09;5089581;28;19956;-78
2023/07/13 03:43:11;;;;;;;;;;;;;;;16.63;81.40;96542.94;5105764;28;19939;-72
2023/07/13 03:45:40;;;;;;;;;;;;;;;16.63;80.69;96534.16;5105895;28;19939;-72
2023/07/13 03:48:06;;;;;;;;;;;;;;;16.61;81.16;96547.69;5106980;28;19939;-72
2023/07/13 03:50:32;;;;;;;;;;;;;;;16.63;81.38;96550.03;5106598;28;19946;-73
2023/07/13 03:52:58;;;;;;;;;;;;;;;16.62;80.99;96548.47;5106292;28;19941;-72
2023/07/13 03:55:24;;;;;;;;;;;;;;;16.63;81.07;96558.00;5105503;28;19935;-72
2023/07/13 03:57:57;;;;;;;;;;;;;;;16.61;81.13;96550.31;5107316;28;20022;-77
2023/07/13 04:00:23;;;;;;;;;;;;;;;16.61;81.05;96554.81;5106436;28;20246;-72
2023/07/13 04:02:49;;;;;;;;;;;;;;;16.58;81.51;96565.91;5107227;28;20006;-72
2023/07/13 04:05:15;;;;;;;;;;;;;;;16.57;81.93;96567.75;5106443;28;19965;-72
2023/07/13 04:07:41;;;;;;;;;;;;;;;16.57;82.27;96570.41;5105977;28;20233;-72
2023/07/13 04:10:07;;;;;;;;;;;;;;;16.56;82.05;96570.66;5106322;28;19936;-72
2023/07/13 04:12:33;;;;;;;;;;;;;;;16.56;82.11;96571.44;5106267;28;20223;-72
2023/07/13 04:14:59;;;;;;;;;;;;;;;16.56;82.49;96571.44;5106247;28;19946;-71
2023/07/13 04:17:25;;;;;;;;;;;;;;;16.54;82.28;96562.16;5104921;28;19974;-72
2023/07/13 04:19:51;;;;;;;;;;;;;;;16.51;82.79;96565.34;5104935;28;19964;-73
2023/07/13 04:22:16;;;;;;;;;;;;;;;16.50;82.90;96567.16;5088049;28;20253;-73
2023/07/13 04:24:43;;;;;;;;;;;;;;;16.50;82.79;96563.72;5105463;28;19932;-72
2023/07/13 04:27:09;;;;;;;;;;;;;;;16.49;82.90;96567.44;5104821;28;19944;-71
2023/07/13 04:29:35;;;;;;;;;;;;;;;16.48;82.69;96568.47;5104786;28;19935;-71
2023/07/13 04:32:01;;;;;;;;;;;;;;;16.47;82.52;96569.53;5105857;28;19935;-71
2023/07/13 04:34:26;;;;;;;;;;;;;;;16.46;82.75;96562.63;5105807;28;19937;-80
2023/07/13 04:36:52;;;;;;;;;;;;;;;16.45;83.06;96567.13;5105937;28;19945;-77
2023/07/13 04:39:18;;;;;;;;;;;;;;;16.44;82.73;96563.69;5104564;28;19960;-79
2023/07/13 04:41:44;;;;;;;;;;;;;;;16.44;82.65;96570.81;5106122;28;20009;-82
2023/07/13 04:44:10;;;;;;;;;;;;;;;16.42;83.01;96576.38;5104471;28;19959;-82
2023/07/13 04:46:37;;;;;;;;;;;;;;;16.40;82.22;96562.59;5105558;28;20172;-82
2023/07/13 04:49:03;;;;;;;;;;;;;;;16.41;82.83;96569.47;5104453;28;19949;-78
2023/07/13 04:51:29;;;;;;;;;;;;;;;16.42;83.37;96568.44;5104331;28;19967;-79
2023/07/13 04:53:55;;;;;;;;;;;;;;;16.43;83.08;96571.88;5105423;28;19943;-73
2023/07/13 04:56:21;;;;;;;;;;;;;;;16.44;83.17;96573.47;5105237;28;19950;-72
2023/07/13 04:58:47;;;;;;;;;;;;;;;16.46;83.26;96576.66;5088084;28;19942;-72
2023/07/13 05:01:13;;;;;;;;;;;;;;;16.49;82.77;96578.03;5104141;28;20003;-73
2023/07/13 05:03:39;;;;;;;;;;;;;;;16.54;82.74;96584.13;5105223;28;19941;-73
2023/07/13 05:06:06;;;;;;;;;;;;;;;16.60;83.61;96591.06;5087247;28;19939;-72
2023/07/13 05:08:32;;;;;;;;;;;;;;;16.66;82.62;96589.28;5105223;28;19945;-73
2023/07/13 05:11:02;;;;;;;;;;;;;;;16.70;82.82;96586.94;5087039;28;19938;-75
2023/07/13 05:13:27;;;;;;;;;;;;;;;16.77;83.75;96593.59;5105947;28;19936;-75
2023/07/13 05:15:58;;;;;;;;;;;;;;;16.81;84.56;96586.75;5105927;28;19937;-78
2023/07/13 05:18:24;;;;;;;;;;;;;;;16.88;83.88;96583.91;5086964;28;19978;-78
2023/07/13 05:21:03;;;;;;;;;;;;;;;16.94;84.51;96590.03;5104557;28;20040;-78
2023/07/13 05:23:30;;;;;;;;;;;;;;;16.98;84.10;96594.56;5104969;28;19946;-77
2023/07/13 05:25:56;;;;;;;;;;;;;;;17.03;83.96;96591.97;5104901;28;19947;-76
2023/07/13 05:28:21;;;;;;;;;;;;;;;17.08;83.19;96587.75;5104850;28;20217;-78
2023/07/13 05:30:48;;;;;;;;;;;;;;;17.11;80.92;96569.47;5105364;28;19934;-72
2023/07/13 05:33:14;;;;;;;;;;;;;;;17.14;80.27;96573.47;5103643;28;19948;-73
2023/07/13 05:35:40;;;;;;;;;;;;;;;17.17;80.47;96583.56;5103613;28;19937;-73
2023/07/13 05:38:06;;;;;;;;;;;;;;;17.16;80.63;96593.38;5104319;28;19941;-73
2023/07/13 05:40:32;;;;;;;;;;;;;;;17.20;79.24;96585.72;5086573;28;19954;-74
2023/07/13 05:42:58;;;;;;;;;;;;;;;17.21;78.96;96588.06;5103578;28;19959;-74
2023/07/13 05:45:23;;;;;;;;;;;;;;;17.25;80.64;96599.75;5086563;28;19939;-74
2023/07/13 05:47:49;;;;;;;;;;;;;;;17.28;79.97;96597.66;5086834;28;19940;-73
2023/07/13 05:50:15;;;;;;;;;;;;;;;17.31;80.01;96602.47;5104167;28;19936;-73
2023/07/13 05:52:41;;;;;;;;;;;;;;;17.36;80.28;96607.78;5086488;28;20016;-73
2023/07/13 05:55:07;;;;;;;;;;;;;;;17.59;80.99;96619.81;5087285;28;20008;-73
2023/07/13 05:57:33;;;;;;;;;;;;;;;17.81;80.25;96601.88;5104899;28;19955;-73
2023/07/13 05:59:59;;;;;;;;;;;;;;;18.05;80.17;96617.38;5104391;28;19937;-73
2023/07/13 06:02:26;;;;;;;;;;;;;;;18.31;78.69;96612.94;5104347;28;19960;-73
2023/07/13 06:04:52;;;;;;;;;;;;;;;18.60;78.56;96607.91;5103240;28;19933;-73
2023/07/13 06:07:17;;;;;;;;;;;;;;;18.91;77.86;96601.84;5104275;28;19999;-80
2023/07/13 06:09:43;;;;;;;;;;;;;;;19.38;76.25;96598.00;5086499;28;19982;-73
2023/07/13 06:12:09;;;;;;;;;;;;;;;19.71;74.24;96588.63;5103102;28;19940;-73
2023/07/13 06:14:35;;;;;;;;;;;;;;;19.83;72.57;96578.47;5108211;28;20001;-73
2023/07/13 06:17:01;;;;;;;;;;;;;;;20.12;70.98;96564.47;5090374;28;20281;-73
2023/07/13 06:19:27;;;;;;;;;;;;;;;20.32;69.14;96554.75;5091170;28;19964;-73
2023/07/13 06:21:52;;;;;;;;;;;;;;;20.38;68.75;96550.97;5090293;28;19993;-73
2023/07/13 06:24:18;;;;;;;;;;;;;;;20.52;68.23;96553.81;5108096;28;19937;-74
2023/07/13 06:26:44;;;;;;;;;;;;;;;20.64;67.98;96559.56;5107948;28;20233;-75
2023/07/13 06:29:10;;;;;;;;;;;;;;;20.85;66.55;96550.34;5108261;28;20282;-72
2023/07/13 06:31:36;;;;;;;;;;;;;;;21.16;65.97;96538.56;5090135;28;19992;-73
2023/07/13 06:34:02;;;;;;;;;;;;;;;21.21;64.89;96557.19;5090697;28;19937;-73
2023/07/13 06:36:28;;;;;;;;;;;;;;;20.99;63.67;96563.78;5090930;28;19970;-73
2023/07/13 06:38:54;;;;;;;;;;;;;;;20.71;63.16;96567.28;5090107;28;20186;-73
2023/07/13 06:41:20;;;;;;;;;;;;;;;20.62;65.85;96585.69;5089966;28;19958;-73
2023/07/13 06:43:45;;;;;;;;;;;;;;;20.91;65.84;96593.72;5107772;28;19937;-75
2023/07/13 06:46:11;;;;;;;;;;;;;;;21.20;63.65;96580.38;5108804;28;19940;-74
2023/07/13 06:48:37;;;;;;;;;;;;;;;21.53;63.04;96572.59;5089844;28;19988;-74
2023/07/13 06:51:03;;;;;;;;;;;;;;;21.71;60.47;96565.69;5089757;28;19936;-75
2023/07/13 06:53:29;;;;;;;;;;;;;;;21.68;61.23;96576.94;5089663;28;19933;-74
2023/07/13 06:55:55;;;;;;;;;;;;;;;21.62;59.76;96586.09;5106377;28;19960;-74
2023/07/13 06:58:21;;;;;;;;;;;;;;;21.66;58.10;96584.44;5090432;28;19978;-75
2023/07/13 07:00:50;;;;;;;;;;;;;;;21.65;58.10;96589.00;5107505;28;19954;-73
2023/07/13 07:03:15;;;;;;;;;;;;;;;21.66;58.60;96589.78;5089579;28;19944;-74
2023/07/13 07:05:41;;;;;;;;;;;;;;;21.74;58.36;96597.16;5106462;28;19943;-74
2023/07/13 07:08:07;;;;;;;;;;;;;;;22.02;58.25;96602.69;5089438;28;20230;-73
2023/07/13 07:10:34;;;;;;;;;;;;;;;22.18;54.39;96582.69;5106957;28;20097;-73
2023/07/13 07:12:59;;;;;;;;;;;;;;;22.38;54.36;96581.63;5106383;28;19934;-74
2023/07/13 07:15:26;;;;;;;;;;;;;;;22.60;56.39;96596.28;5106237;28;20001;-74
2023/07/13 07:17:52;;;;;;;;;;;;;;;22.80;54.67;96581.78;5089424;28;19963;-74
2023/07/13 07:20:18;;;;;;;;;;;;;;;22.92;52.59;96584.78;5106772;28;19948;-74
2023/07/13 07:22:44;;;;;;;;;;;;;;;23.08;53.76;96596.03;5089936;28;19937;-74
2023/07/13 07:25:12;;;;;;;;;;;;;;;23.27;51.70;96580.69;5107401;28;20214;-73
2023/07/13 07:27:38;;;;;;;;;;;;;;;23.42;51.59;96578.84;5072390;28;20229;-73
2023/07/13 07:30:04;;;;;;;;;;;;;;;23.53;51.44;96585.56;5088961;28;20124;-73
2023/07/13 07:32:30;;;;;;;;;;;;;;;23.63;51.45;96577.34;5105977;28;19939;-74
2023/07/13 07:34:57;;;;;;;;;;;;;;;23.68;47.73;96569.19;5089646;28;19937;-74
2023/07/13 07:37:23;;;;;;;;;;;;;;;23.55;49.76;96590.63;5089716;28;19940;-74
2023/07/13 07:39:49;;;;;;;;;;;;;;;23.54;50.55;96597.06;5089707;28;20097;-75
2023/07/13 07:42:14;;;;;;;;;;;;;;;23.54;45.14;96579.13;5089577;28;19968;-76
2023/07/13 07:44:40;;;;;;;;;;;;;;;23.45;49.57;96603.09;5105661;28;19937;-77
2023/07/13 07:47:07;;;;;;;;;;;;;;;23.48;49.83;96591.81;5106356;28;19947;-76
2023/07/13 07:49:34;;;;;;;;;;;;;;;23.61;50.18;96600.16;5105818;28;20015;-76
2023/07/13 07:52:00;;;;;;;;;;;;;;;23.60;48.42;96596.69;5105900;28;19940;-76
2023/07/13 07:54:26;;;;;;;;;;;;;;;23.49;46.34;96595.28;5106228;28;19951;-77
2023/07/13 07:56:52;;;;;;;;;;;;;;;23.39;46.49;96601.63;5106753;28;19952;-75
2023/07/13 07:59:18;;;;;;;;;;;;;;;23.37;51.05;96617.19;5106500;28;19938;-73
2023/07/13 08:01:46;;;;;;;;;;;;;;;23.46;49.22;96606.59;5088444;28;19953;-75
2023/07/13 08:04:12;;;;;;;;;;;;;;;23.47;46.27;96594.78;5107115;28;19944;-73
2023/07/13 08:06:37;;;;;;;;;;;;;;;23.50;47.97;96611.06;5088460;28;19947;-73
2023/07/13 08:09:04;;;;;;;;;;;;;;;23.57;48.59;96613.31;5089112;28;19998;-73
2023/07/13 08:11:30;;;;;;;;;;;;;;;23.77;46.07;96600.66;5088336;28;20142;-73
2023/07/13 08:13:56;;;;;;;;;;;;;;;23.94;47.11;96600.03;5088277;28;19944;-73
2023/07/13 08:16:23;;;;;;;;;;;;;;;24.11;45.08;96602.91;5105873;28;19941;-74
2023/07/13 08:18:48;;;;;;;;;;;;;;;24.12;44.76;96599.13;5104891;28;19966;-81
2023/07/13 08:21:14;;;;;;;;;;;;;;;24.24;48.63;96614.69;5105782;28;20009;-80
2023/07/13 08:23:40;;;;;;;;;;;;;;;24.30;43.30;96603.53;5104948;28;19939;-80
2023/07/13 08:26:06;;;;;;;;;;;;;;;24.28;43.92;96610.31;5088832;28;19959;-80
2023/07/13 08:28:33;;;;;;;;;;;;;;;24.38;44.23;96623.47;5087938;28;19947;-79
2023/07/13 08:31:07;;;;;;;;;;;;;;;24.56;45.90;96620.97;5105826;28;20118;-80
2023/07/13 08:33:33;;;;;;;;;;;;;;;24.73;42.30;96614.94;5088635;28;19942;-78
2023/07/13 08:35:59;;;;;;;;;;;;;;;24.80;42.53;96612.59;5087690;28;20110;-76
2023/07/13 08:38:25;;;;;;;;;;;;;;;24.76;41.57;96603.56;5104586;28;19936;-76
2023/07/13 08:40:53;;;;;;;;;;;;;;;24.69;41.51;96606.69;5104633;28;19937;-75
2023/07/13 08:43:20;;;;;;;;;;;;;;;24.73;43.18;96606.88;5105367;28;19939;-76
2023/07/13 08:45:48;;;;;;;;;;;;;;;24.83;45.32;96620.84;5104525;28;19931;-76
2023/07/13 08:48:14;;;;;;;;;;;;;;;24.86;44.91;96620.25;5104475;28;20233;-76
2023/07/13 08:50:47;;;;;;;;;;;;;;;24.92;39.03;96600.25;5087925;28;19942;-76
2023/07/13 08:53:13;;;;;;;;;;;;;;;25.12;43.04;96619.59;5105258;28;19933;-75
2023/07/13 08:55:39;;;;;;;;;;;;;;;25.22;42.07;96611.31;5105326;28;19941;-74
2023/07/13 08:58:09;;;;;;;;;;;;;;;25.33;43.79;96614.53;5104332;28;19995;-75
2023/07/13 09:00:42;;;;;;;;;;;;;;;25.50;40.77;96611.13;5104218;28;19947;-74
2023/07/13 09:03:15;;;;;;;;;;;;;;;25.63;40.59;96617.47;5088154;28;19936;-74
2023/07/13 09:05:42;;;;;;;;;;;;;;;25.53;41.42;96623.91;5105894;28;20214;-74
2023/07/13 09:08:27;;;;;;;;;;;;;;;25.45;38.54;96608.56;5104185;28;19951;-75
2023/07/13 09:10:59;;;;;;;;;;;;;;;25.46;42.27;96623.56;5088056;28;19944;-73
2023/07/13 09:13:34;;;;;;;;;;;;;;;25.59;41.80;96629.94;5104790;28;19944;-79
2023/07/13 09:16:01;;;;;;;;;;;;;;;25.62;39.33;96611.31;5106085;28;19939;-77
2023/07/13 09:18:42;;;;;;;;;;;;;;;25.48;44.06;96624.84;5088886;28;19977;-78
2023/07/13 09:21:16;;;;;;;;;;;;;;;25.36;40.76;96610.41;5107063;28;19950;-77
2023/07/13 09:23:44;;;;;;;;;;;;;;;25.29;38.50;96613.56;5105272;28;20240;-77
2023/07/13 09:26:18;;;;;;;;;;;;;;;25.29;40.61;96608.19;5089030;28;20103;-77
2023/07/13 09:28:45;;;;;;;;;;;;;;;25.16;40.75;96617.06;5088856;28;19943;-77
2023/07/13 09:31:14;;;;;;;;;;;;;;;25.22;40.57;96615.88;5104504;28;19944;-74
2023/07/13 09:33:40;;;;;;;;;;;;;;;25.23;42.42;96629.00;5104360;28;19939;-80
2023/07/13 09:36:25;;;;;;;;;;;;;;;25.29;42.28;96624.28;5086592;28;19939;-80
2023/07/13 09:39:13;;;;;;;;;;;;;;;25.46;40.76;96618.22;5105453;28;19945;-81
2023/07/13 09:41:53;;;;;;;;;;;;;;;25.49;41.08;96613.00;5103384;28;20137;-80
2023/07/13 09:44:32;;;;;;;;;;;;;;;25.48;40.88;96616.78;5087395;28;19950;-79
2023/07/13 09:46:58;;;;;;;;;;;;;;;25.50;38.81;96606.53;5087166;28;19949;-76
2023/07/13 09:49:25;;;;;;;;;;;;;;;25.47;39.27;96611.72;5086535;28;19933;-73
2023/07/13 09:51:58;;;;;;;;;;;;;;;25.46;38.51;96610.16;5087164;28;19938;-74
2023/07/13 09:54:25;;;;;;;;;;;;;;;25.54;39.35;96622.03;5087196;28;20110;-75
2023/07/13 09:57:00;;;;;;;;;;;;;;;25.68;38.16;96609.25;5103909;28;20118;-74
2023/07/13 09:59:29;;;;;;;;;;;;;;;25.68;38.57;96614.63;5103810;28;20206;-75
2023/07/13 10:01:55;;;;;;;;;;;;;;;25.65;38.18;96608.00;5103046;28;19960;-75
2023/07/13 10:04:26;;;;;;;;;;;;;;;25.64;36.05;96600.25;5103741;28;19938;-74
2023/07/13 10:07:04;;;;;;;;;;;;;;;25.70;37.16;96594.44;5105064;28;19939;-73
2023/07/13 10:09:30;;;;;;;;;;;;;;;25.70;36.76;96597.13;5104625;28;20112;-78
2023/07/13 10:11:55;;;;;;;;;;;;;;;25.60;36.37;96599.28;5103885;28;19935;-78
2023/07/13 10:14:25;;;;;;;;;;;;;;;25.35;37.20;96608.84;5086250;28;19987;-79
2023/07/13 10:17:02;;;;;;;;;;;;;;;25.15;36.46;96610.13;5104040;28;19938;-78
2023/07/13 10:19:32;;;;;;;;;;;;;;;25.08;38.20;96616.72;5087055;28;19940;-79
2023/07/13 10:21:59;;;;;;;;;;;;;;;25.10;39.57;96617.22;5086085;28;19975;-79
2023/07/13 10:24:27;;;;;;;;;;;;;;;25.25;40.03;96623.31;5103678;28;19934;-75
2023/07/13 10:27:00;;;;;;;;;;;;;;;25.39;38.29;96620.53;5086893;28;19940;-74
2023/07/13 10:29:28;;;;;;;;;;;;;;;25.31;37.12;96608.66;5104805;28;19935;-73
2023/07/13 10:31:53;;;;;;;;;;;;;;;25.35;37.86;96614.22;5104027;28;19933;-74
2023/07/13 10:34:20;;;;;;;;;;;;;;;25.52;38.55;96609.69;5086000;28;20251;-73
2023/07/13 10:36:47;;;;;;;;;;;;;;;25.66;37.69;96606.09;5086808;28;19937;-74
2023/07/13 10:39:20;;;;;;;;;;;;;;;25.70;36.62;96602.50;5085924;28;19940;-74
2023/07/13 10:41:49;;;;;;;;;;;;;;;25.69;39.17;96613.56;5085797;28;19955;-73
2023/07/13 10:44:19;;;;;;;;;;;;;;;25.76;39.44;96616.56;5103654;28;20119;-75
2023/07/13 10:46:45;;;;;;;;;;;;;;;25.92;37.69;96611.59;5086583;28;19955;-78
2023/07/13 10:49:11;;;;;;;;;;;;;;;26.06;35.42;96606.06;5086032;28;19944;-78
2023/07/13 10:51:37;;;;;;;;;;;;;;;26.24;37.59;96610.34;5102730;28;19929;-79
2023/07/13 10:54:09;;;;;;;;;;;;;;;26.35;34.74;96600.06;5102823;28;19933;-80
2023/07/13 10:56:35;;;;;;;;;;;;;;;26.51;34.19;96597.72;5102706;28;19949;-77
2023/07/13 10:59:06;;;;;;;;;;;;;;;26.69;32.76;96596.63;5104637;28;19936;-78
2023/07/13 11:01:39;;;;;;;;;;;;;;;26.83;34.82;96593.75;5107192;28;19955;-73
2023/07/13 11:04:11;;;;;;;;;;;;;;;26.91;34.13;96595.63;5089657;28;19966;-78
2023/07/13 11:06:41;;;;;;;;;;;;;;;26.83;33.59;96593.75;5106795;28;19930;-77
2023/07/13 11:09:19;;;;;;;;;;;;;;;26.78;32.38;96593.94;5108357;28;19940;-76
2023/07/13 11:11:45;;;;;;;;;;;;;;;26.64;33.17;96598.69;5108282;28;19936;-77
2023/07/13 11:14:26;;;;;;;;;;;;;;;26.47;31.94;96605.63;5106245;28;20110;-74
2023/07/13 11:16:52;;;;;;;;;;;;;;;26.47;33.90;96607.53;5107134;28;20247;-75
2023/07/13 11:19:18;;;;;;;;;;;;;;;26.41;32.12;96590.75;5106563;28;19939;-72
2023/07/13 11:22:03;;;;;;;;;;;;;;;26.51;34.51;96597.72;5107120;28;20033;-75
2023/07/13 11:24:47;;;;;;;;;;;;;;;26.61;34.11;96594.75;5106387;28;19947;-76
2023/07/13 11:27:22;;;;;;;;;;;;;;;26.65;32.56;96590.31;5106710;28;19940;-75
2023/07/13 11:29:48;;;;;;;;;;;;;;;26.84;34.17;96592.66;5105973;28;19941;-75
2023/07/13 11:32:26;;;;;;;;;;;;;;;27.06;30.57;96588.16;5106766;28;20211;-75
2023/07/13 11:34:53;;;;;;;;;;;;;;;27.30;32.83;96593.03;5105854;28;20226;-76
2023/07/13 11:37:20;;;;;;;;;;;;;;;27.50;30.49;96581.53;5107433;28;19934;-76
2023/07/13 11:39:47;;;;;;;;;;;;;;;27.74;32.36;96585.53;5106617;28;19932;-82
2023/07/13 11:42:15;;;;;;;;;;;;;;;27.90;30.50;96581.19;5106753;28;20044;-71
2023/07/13 11:44:45;;;;;;;;;;;;;;;28.05;30.76;96568.25;5105676;28;19936;-73
2023/07/13 11:47:17;;;;;;;;;;;;;;;28.16;31.08;96582.94;5105587;28;19935;-73
2023/07/13 11:49:48;;;;;;;;;;;;;;;27.84;31.74;96579.75;5107010;28;20093;-72
2023/07/13 11:52:16;;;;;;;;;;;;;;;27.67;32.16;96583.34;5107177;28;20207;-73
2023/07/13 11:54:50;;;;;;;;;;;;;;;27.59;31.96;96584.16;5107408;28;20109;-73
2023/07/13 11:57:37;;;;;;;;;;;;;;;27.70;32.66;96588.09;5106124;28;20109;-73
2023/07/13 12:00:08;;;;;;;;;;;;;;;27.83;32.59;96590.88;5106182;28;20233;-80
2023/07/13 12:02:38;;;;;;;;;;;;;;;27.98;30.31;96587.63;5105924;28;20243;-82
2023/07/13 12:05:04;;;;;;;;;;;;;;;28.09;29.83;96582.66;5088305;28;19934;-84
2023/07/13 12:07:32;;;;;;;;;;;;;;;27.92;30.02;96586.25;5089063;28;20124;-84
2023/07/13 12:10:21;;;;;;;;;;;;;;;27.84;30.51;96593.22;5087554;28;19933;-83
2023/07/13 12:12:48;;;;;;;;;;;;;;;28.00;30.37;96587.31;5080727;28;19945;-81
2023/07/13 12:15:14;;;;;;;;;;;;;;;28.12;31.15;96579.31;5088187;28;19949;-73
2023/07/13 12:17:41;;;;;;;;;;;;;;;28.27;31.98;96586.81;5105972;28;19962;-74
2023/07/13 12:20:17;;;;;;;;;;;;;;;28.08;30.21;96598.03;5105600;28;19950;-74
2023/07/13 12:22:46;;;;;;;;;;;;;;;27.68;31.05;96598.41;5106189;28;19953;-74
2023/07/13 12:25:13;;;;;;;;;;;;;;;27.28;29.20;96587.97;5106280;28;19944;-75
2023/07/13 12:27:39;;;;;;;;;;;;;;;27.09;32.41;96591.00;5087877;28;20135;-74
2023/07/13 12:30:21;;;;;;;;;;;;;;;27.32;34.04;96586.22;5105817;28;20025;-74
2023/07/13 12:33:01;;;;;;;;;;;;;;;27.77;31.00;96589.50;5106411;28;19940;-81
2023/07/13 12:35:29;;;;;;;;;;;;;;;27.80;30.74;96588.81;5105382;28;19943;-71
2023/07/13 12:37:57;;;;;;;;;;;;;;;27.97;29.49;96582.56;5105314;28;19942;-72
2023/07/13 12:40:27;;;;;;;;;;;;;;;27.98;29.82;96582.25;5105701;28;20110;-72
2023/07/13 12:42:52;;;;;;;;;;;;;;;28.09;30.02;96578.03;5105549;28;19952;-72
2023/07/13 12:45:21;;;;;;;;;;;;;;;28.10;30.02;96578.84;5105597;28;19941;-72
2023/07/13 12:47:53;;;;;;;;;;;;;;;28.14;29.03;96575.16;5088094;28;19940;-73
2023/07/13 12:50:23;;;;;;;;;;;;;;;28.05;29.57;96584.41;5106293;28;19941;-73